Soaring Guidance
Issued by NWS Reno, NV

Home | Current Version | Previous Version | Text Only | Print | Product List | Glossary On
Versions: 1 2 3 4 5 6 7 8
000
UXUS97 KREV 271341
SRGREV

SOARING FORECAST
NATIONAL WEATHER SERVICE - RENO NV
700 AM PDT THU JUL 27 2017

THIS SOARING FORECAST IS FOR THE EASTERN SIERRA AND WESTERN NEVADA
WITH SPECIFIC INDICES FOR THE GREATER RENO AREA.

THIS FORECAST IS PREPARED DAILY BY 700 AM AND IS NOT UPDATED.

FOR CURRENT FLIGHT CONDITIONS...FORECASTS...AND ADVISORIES...ACCESS
YOUR LOCAL BRIEFING OUTLET OR FLIGHT SERVICE STATION.

*******************************************************************
FORECASTED LOCAL INDICES FOR RENO:        TODAY     YESTERDAY
FORECASTED MAX TEMP AT RENO (DEG F).....     94          93
FORECASTED TRIGGER TEMPERATURE (DEG F)..     75          79
   EXCEEDED YESTERDAY BY 1055 AM PDT
FORECASTED MAXIMUM ALTITUDE (FT MSL)....  17200       15800
FORECASTED SOARING INDEX (FPM)..........   1056         984
FORECASTED K-INDEX.........VALID 18Z....     23          33
FORECASTED K-INDEX.........VALID 00Z....     19          35
FORECASTED LIFTED INDEX....VALID 18Z....      4          -1
FORECASTED LIFTED INDEX....VALID 00Z....      2          -2

AFTERNOON WINDS ALOFT FORECAST
MSL (FT) WIND/TEMP
9000  3005/+17
10000 2805/+14
12000 2805/+08
14000 2407/+02
16000 2309/-03
18000 2314/-08
24000 2217/-21
30000 2226/-35
34000 2132/-43
39000 2237/-50

SLIDE MOUNTAIN DATA:
     DATE       TIME     TEMP  DEWPT   RH         WIND (MPH)
                        (F)   (F)           | DIR  SPEED GUST
2017-07-27    05:00      48    38     60    | 149    3    7
2017-07-27    04:50      48    39     62    | 156    6   13
2017-07-27    04:30      48    39     61    | 153    7   13
2017-07-27    04:20      48    38     58    | 153    9   14

RENO TAF FORECAST:
KRNO 271120Z 2712/2812 VRB04KT P6SM SKC
     FM272000 26011KT P6SM FEW100
     FM280600 VRB03KT P6SM SKC

CARSON CITY TAF FORECAST:
KCXP 271120Z 2712/2812 VRB04KT P6SM SKC
     FM272000 25010KT P6SM FEW100
     FM280600 VRB03KT P6SM SKC

OUTLOOK FOR THE RENO-CARSON CITY-MINDEN AREA:
.FRIDAY...SUNNY. HIGHS 94 TO 99. WEST WINDS UP TO 10 MPH.

SUNRISE AND SUNSET
JULY 27 2017..........SUNRISE   555 AM PDT   SUNSET   816 PM PDT
JULY 28 2017..........SUNRISE   555 AM PDT   SUNSET   815 PM PDT



USA.gov is the U.S. government's official web portal to all federal, state and local government web resources and services.